Time;durP1;ratioP1;P1;durP2;ratioP2;P2;SDS_P1;SDS_P2;PMS_P1;PMS_P2;Temp;Humidity;BMP_temperature;BMP_pressure;BME280_temperature;BME280_humidity;BME280_pressure;Samples;Min_cycle;Max_cycle;Signal;HPM_P1;HPM_P2
2023/07/28 00:00:30;;;;;;;5.67;2.50;;;;;17.10;96440.00;;;;5012106;28;20270;-90
2023/07/28 00:03:20;;;;;;;2.40;2.20;;;;;16.80;96442.00;;;;5008203;28;20202;-91
2023/07/28 00:06:09;;;;;;;2.87;2.50;;;;;16.80;96444.00;;;;5004972;28;20667;-91
2023/07/28 00:08:58;;;;;;;5.87;3.10;;;;;17.20;96444.00;;;;5009042;28;20221;-90
2023/07/28 00:11:48;;;;;;;2.33;1.83;;;;;17.50;96440.00;;;;5010593;28;20703;-90
2023/07/28 00:14:37;;;;;;;6.63;3.77;;;;;17.50;96428.00;;;;5004142;28;20691;-90
2023/07/28 00:17:26;;;;;;;2.43;2.03;;;;;17.40;96420.00;;;;5007533;28;20706;-90
2023/07/28 00:20:16;;;;;;;4.93;2.73;;;;;17.40;96416.00;;;;5010007;28;20280;-91
2023/07/28 00:23:05;;;;;;;3.87;2.10;;;;;17.30;96422.00;;;;5004392;28;20475;-90
2023/07/28 00:25:54;;;;;;;3.07;2.33;;;;;17.00;96420.00;;;;5011347;28;20690;-91
2023/07/28 00:28:44;;;;;;;3.67;2.10;;;;;16.80;96420.00;;;;5008837;28;20229;-90
2023/07/28 00:31:33;;;;;;;2.53;1.97;;;;;17.00;96411.00;;;;5009968;28;20663;-90
2023/07/28 00:34:23;;;;;;;5.63;2.27;;;;;17.30;96395.00;;;;5009632;28;20240;-90
2023/07/28 00:37:12;;;;;;;5.43;2.63;;;;;17.50;96396.00;;;;5005430;28;20232;-90
2023/07/28 00:40:01;;;;;;;2.43;2.03;;;;;17.30;96395.00;;;;5009455;28;20202;-91
2023/07/28 00:42:50;;;;;;;3.93;2.57;;;;;16.80;96398.00;;;;5002742;28;20206;-91
2023/07/28 00:45:41;;;;;;;2.50;2.30;;;;;16.70;96395.00;;;;5009938;28;20202;-92
2023/07/28 00:48:30;;;;;;;4.17;2.40;;;;;16.40;96390.00;;;;5007603;28;20233;-91
2023/07/28 00:51:19;;;;;;;2.93;2.50;;;;;16.80;96395.00;;;;5007290;28;20213;-90
2023/07/28 00:54:08;;;;;;;2.60;2.40;;;;;16.90;96392.00;;;;5004774;28;20229;-90
2023/07/28 00:56:57;;;;;;;4.10;2.13;;;;;16.50;96383.00;;;;5008245;28;20210;-91
2023/07/28 00:59:47;;;;;;;4.73;2.80;;;;;16.40;96384.00;;;;5005077;28;20225;-91
2023/07/28 01:02:39;;;;;;;2.57;1.90;;;;;16.40;96380.00;;;;5009356;28;20210;-91
2023/07/28 01:05:35;;;;;;;3.70;2.40;;;;;16.50;96388.00;;;;5007174;28;20478;-89
2023/07/28 01:08:29;;;;;;;5.03;2.27;;;;;16.60;96392.00;;;;5008424;28;20222;-90
2023/07/28 01:11:18;;;;;;;4.70;2.50;;;;;17.00;96394.00;;;;5006317;28;20213;-89
2023/07/28 01:14:08;;;;;;;3.77;2.40;;;;;16.90;96390.00;;;;5004508;28;20730;-89
2023/07/28 01:16:57;;;;;;;2.80;2.33;;;;;17.10;96385.00;;;;5009733;28;20210;-89
2023/07/28 01:19:47;;;;;;;4.17;2.63;;;;;17.00;96390.00;;;;5006960;28;20221;-90
2023/07/28 01:22:56;;;;;;;3.03;2.57;;;;;17.10;96389.00;;;;5007219;28;20229;-90
2023/07/28 01:25:56;;;;;;;3.40;2.00;;;;;17.30;96377.00;;;;5007580;28;20206;-90
2023/07/28 01:28:47;;;;;;;5.43;2.80;;;;;17.10;96381.00;;;;5008326;28;20699;-89
2023/07/28 01:31:36;;;;;;;3.57;2.37;;;;;16.80;96386.00;;;;5007705;28;20209;-89
2023/07/28 01:34:25;;;;;;;3.13;2.13;;;;;16.80;96385.00;;;;5006595;28;20226;-91
2023/07/28 01:37:15;;;;;;;3.97;2.40;;;;;16.70;96378.00;;;;5009948;28;20210;-91
2023/07/28 01:40:04;;;;;;;3.77;1.93;;;;;16.40;96376.00;;;;5009650;28;20267;-91
2023/07/28 01:42:53;;;;;;;3.13;2.30;;;;;16.50;96381.00;;;;5008042;28;20406;-91
2023/07/28 01:45:44;;;;;;;3.00;2.20;;;;;16.30;96383.00;;;;5000981;28;20210;-91
2023/07/28 01:48:33;;;;;;;2.10;1.90;;;;;16.60;96376.00;;;;5007622;28;20310;-90
2023/07/28 01:51:22;;;;;;;3.37;2.17;;;;;16.80;96367.00;;;;5005208;28;20592;-89
2023/07/28 01:54:11;;;;;;;4.60;4.20;;;;;16.80;96376.00;;;;5003294;28;20213;-89
2023/07/28 01:57:00;;;;;;;4.33;2.33;;;;;16.70;96368.00;;;;5004949;28;20199;-89
2023/07/28 01:59:49;;;;;;;3.43;2.10;;;;;16.50;96363.00;;;;5009077;28;20594;-90
2023/07/28 02:02:40;;;;;;;2.67;2.23;;;;;16.50;96376.00;;;;5007728;28;20213;-90
2023/07/28 02:05:29;;;;;;;2.80;2.37;;;;;16.10;96363.00;;;;5007558;28;20206;-90
2023/07/28 02:08:18;;;;;;;5.40;2.57;;;;;16.10;96367.00;;;;5004906;28;20258;-90
2023/07/28 02:11:07;;;;;;;2.67;2.20;;;;;16.10;96371.00;;;;5004143;28;20604;-90
2023/07/28 02:13:58;;;;;;;3.40;2.40;;;;;16.00;96380.00;;;;5008485;28;20218;-92
2023/07/28 02:16:47;;;;;;;2.77;2.07;;;;;16.00;96382.00;;;;5009202;28;20202;-89
2023/07/28 02:19:37;;;;;;;2.77;2.23;;;;;16.10;96378.00;;;;5007170;28;20225;-90
2023/07/28 02:22:27;;;;;;;2.97;2.33;;;;;15.90;96383.00;;;;5001255;28;20202;-91
2023/07/28 02:25:16;;;;;;;4.50;2.63;;;;;16.10;96378.00;;;;5006270;28;20566;-90
2023/07/28 02:28:05;;;;;;;4.30;2.80;;;;;16.10;96371.00;;;;5007317;28;20229;-91
2023/07/28 02:30:54;;;;;;;5.70;2.10;;;;;16.40;96367.00;;;;5007258;28;20197;-89
2023/07/28 02:33:43;;;;;;;3.93;2.53;;;;;16.40;96380.00;;;;5008543;28;20214;-91
2023/07/28 02:36:34;;;;;;;2.53;2.23;;;;;16.40;96368.00;;;;5008770;28;20218;-91
2023/07/28 02:39:24;;;;;;;3.63;2.37;;;;;16.60;96378.00;;;;5005919;28;20217;-91
2023/07/28 02:42:13;;;;;;;2.87;2.37;;;;;16.50;96370.00;;;;5009512;28;20221;-90
2023/07/28 02:45:02;;;;;;;3.13;2.50;;;;;16.00;96377.00;;;;5008288;28;20417;-90
2023/07/28 02:47:52;;;;;;;2.80;2.07;;;;;15.80;96377.00;;;;5007127;28;20675;-90
2023/07/28 02:50:46;;;;;;;3.00;2.53;;;;;15.70;96374.00;;;;5007611;28;20221;-91
2023/07/28 02:53:36;;;;;;;2.60;2.20;;;;;15.80;96379.00;;;;5007560;28;20201;-90
2023/07/28 02:56:25;;;;;;;2.60;2.37;;;;;15.50;96389.00;;;;5001165;28;20217;-90
2023/07/28 02:59:15;;;;;;;3.43;2.47;;;;;15.70;96383.00;;;;5002757;28;20247;-90
2023/07/28 03:02:05;;;;;;;3.07;2.77;;;;;15.40;96386.00;;;;5002961;28;20210;-91
2023/07/28 03:04:54;;;;;;;4.00;2.40;;;;;15.30;96379.00;;;;5010154;28;20204;-90
2023/07/28 03:07:43;;;;;;;5.30;2.73;;;;;15.20;96374.00;;;;5010203;28;20205;-91
2023/07/28 03:10:33;;;;;;;3.33;2.73;;;;;15.40;96387.00;;;;5010430;28;20229;-89
2023/07/28 03:13:22;;;;;;;3.87;2.40;;;;;15.60;96379.00;;;;5010831;28;20205;-89
2023/07/28 03:16:12;;;;;;;8.50;3.47;;;;;15.60;96380.00;;;;5009447;28;20604;-89
2023/07/28 03:19:01;;;;;;;3.47;2.33;;;;;15.50;96386.00;;;;5009811;28;20234;-89
2023/07/28 03:21:50;;;;;;;3.13;2.20;;;;;15.30;96389.00;;;;5009835;28;20232;-90
2023/07/28 03:24:39;;;;;;;2.87;2.33;;;;;15.60;96377.00;;;;5009866;28;20678;-89
2023/07/28 03:27:30;;;;;;;3.80;2.67;;;;;15.40;96373.00;;;;5010082;28;20202;-90
2023/07/28 03:30:19;;;;;;;2.73;2.33;;;;;15.20;96367.00;;;;5010100;28;20198;-90
2023/07/28 03:33:08;;;;;;;2.47;2.07;;;;;15.30;96367.00;;;;5010300;28;20213;-90
2023/07/28 03:35:57;;;;;;;6.20;2.10;;;;;15.10;96369.00;;;;5006386;28;20222;-91
2023/07/28 03:38:47;;;;;;;2.63;2.43;;;;;15.10;96366.00;;;;5010241;28;20594;-90
2023/07/28 03:41:36;;;;;;;3.53;2.27;;;;;15.00;96370.00;;;;5009614;28;20198;-89
2023/07/28 03:44:26;;;;;;;3.10;2.73;;;;;14.50;96379.00;;;;5010296;28;20202;-91
2023/07/28 03:47:15;;;;;;;3.40;2.23;;;;;14.90;96372.00;;;;5006519;28;20198;-90
2023/07/28 03:50:05;;;;;;;3.80;2.73;;;;;15.20;96374.00;;;;5004018;28;20206;-89
2023/07/28 03:52:54;;;;;;;2.57;2.30;;;;;15.30;96380.00;;;;5009718;28;20198;-89
2023/07/28 03:55:43;;;;;;;2.90;2.40;;;;;15.00;96375.00;;;;5009300;28;20356;-90
2023/07/28 03:58:32;;;;;;;6.33;2.13;;;;;14.70;96384.00;;;;5009631;28;20697;-91
2023/07/28 04:01:24;;;;;;;3.87;2.20;;;;;15.00;96375.00;;;;5010231;28;20210;-89
2023/07/28 04:04:13;;;;;;;5.57;2.53;;;;;15.40;96382.00;;;;5010300;28;20206;-89
2023/07/28 04:07:02;;;;;;;5.27;2.63;;;;;15.50;96388.00;;;;5011129;28;20221;-89
2023/07/28 04:09:51;;;;;;;10.00;2.63;;;;;15.40;96379.00;;;;5010443;28;20222;-89
2023/07/28 04:12:40;;;;;;;3.37;2.50;;;;;14.90;96379.00;;;;5009067;28;20210;-89
2023/07/28 04:15:29;;;;;;;10.03;2.73;;;;;15.00;96374.00;;;;5008831;28;20217;-89
2023/07/28 04:18:20;;;;;;;3.57;2.63;;;;;15.10;96376.00;;;;5020397;23;20230;-71
2023/07/28 04:21:09;;;;;;;3.33;2.10;;;;;15.00;96369.00;;;;5050710;28;20219;-71
2023/07/28 04:23:58;;;;;;;5.30;2.57;;;;;14.80;96368.00;;;;5045718;28;20212;-71
2023/07/28 04:26:48;;;;;;;3.20;2.53;;;;;14.70;96379.00;;;;5060582;28;20221;-71
2023/07/28 04:29:38;;;;;;;4.30;2.80;;;;;14.80;96374.00;;;;5048874;28;20683;-71
2023/07/28 04:32:27;;;;;;;8.67;3.40;;;;;14.80;96372.00;;;;5048090;28;20215;-71
2023/07/28 04:35:17;;;;;;;2.73;2.13;;;;;15.10;96374.00;;;;5043223;28;20205;-71
2023/07/28 04:38:06;;;;;;;5.60;2.53;;;;;15.10;96359.00;;;;5048301;28;20208;-72
2023/07/28 04:40:55;;;;;;;2.73;2.23;;;;;14.90;96366.00;;;;5045363;28;20224;-70
2023/07/28 04:43:44;;;;;;;2.40;2.10;;;;;14.70;96372.00;;;;5048571;28;20197;-72
2023/07/28 04:46:34;;;;;;;4.17;2.27;;;;;14.70;96371.00;;;;5046942;28;20215;-71
2023/07/28 04:49:23;;;;;;;6.30;2.80;;;;;14.50;96365.00;;;;5047061;28;20212;-72
2023/07/28 04:52:13;;;;;;;5.83;2.50;;;;;14.70;96376.00;;;;5043072;28;20205;-71
2023/07/28 04:55:02;;;;;;;6.00;2.93;;;;;15.10;96373.00;;;;5043045;28;20212;-71
2023/07/28 04:57:51;;;;;;;3.03;2.60;;;;;15.40;96371.00;;;;5043895;28;20580;-71
2023/07/28 05:00:40;;;;;;;2.50;2.30;;;;;15.20;96376.00;;;;5066250;23;20792;-69
2023/07/28 05:03:29;;;;;;;3.17;2.87;;;;;15.70;96372.00;;;;5044135;28;20201;-68
2023/07/28 05:06:18;;;;;;;2.77;2.40;;;;;15.80;96367.00;;;;5041107;28;20198;-68
2023/07/28 05:09:09;;;;;;;4.60;2.10;;;;;15.70;96358.00;;;;5042325;28;20207;-68
2023/07/28 05:11:58;;;;;;;2.93;2.67;;;;;15.90;96374.00;;;;5045712;28;20227;-69
2023/07/28 05:14:47;;;;;;;3.70;2.80;;;;;15.90;96366.00;;;;5043955;28;20206;-68
2023/07/28 05:17:36;;;;;;;9.03;2.43;;;;;16.50;96370.00;;;;5043743;28;20223;-68
2023/07/28 05:20:25;;;;;;;2.10;1.90;;;;;16.80;96366.00;;;;5044587;28;20228;-69
2023/07/28 05:23:14;;;;;;;2.20;1.93;;;;;16.90;96368.00;;;;5041147;28;20542;-69
2023/07/28 05:26:05;;;;;;;2.57;2.23;;;;;16.90;96375.00;;;;5039652;28;20196;-68
2023/07/28 05:28:54;;;;;;;2.27;1.90;;;;;16.90;96371.00;;;;5045560;28;20205;-67
2023/07/28 05:31:43;;;;;;;2.97;2.37;;;;;17.00;96369.00;;;;5043024;28;20220;-69
2023/07/28 05:34:32;;;;;;;2.67;2.47;;;;;17.20;96368.00;;;;5046940;28;20209;-68
2023/07/28 05:37:21;;;;;;;3.13;2.27;;;;;17.30;96366.00;;;;5042514;28;20221;-69
2023/07/28 05:40:11;;;;;;;3.03;2.50;;;;;17.50;96366.00;;;;5040547;28;20733;-68
2023/07/28 05:43:02;;;;;;;3.63;2.10;;;;;17.40;96360.00;;;;5047907;28;20335;-68
2023/07/28 05:45:52;;;;;;;5.53;3.20;;;;;17.70;96367.00;;;;5044488;28;20193;-68
2023/07/28 05:48:41;;;;;;;5.23;2.00;;;;;17.50;96375.00;;;;5043180;28;20212;-68
2023/07/28 05:51:30;;;;;;;3.10;2.40;;;;;17.60;96381.00;;;;5043526;28;20216;-67
2023/07/28 05:54:19;;;;;;;6.63;4.37;;;;;17.90;96380.00;;;;5044032;28;20204;-68
2023/07/28 05:57:08;;;;;;;14.13;6.77;;;;;18.20;96373.00;;;;5042098;28;20228;-67
2023/07/28 05:59:58;;;;;;;7.07;5.37;;;;;18.30;96380.00;;;;5043401;28;20679;-69
2023/07/28 06:02:47;;;;;;;5.20;3.73;;;;;18.90;96378.00;;;;5037775;28;20201;-68
2023/07/28 06:05:37;;;;;;;6.27;2.47;;;;;19.00;96371.00;;;;5040527;28;20208;-68
2023/07/28 06:08:26;;;;;;;3.00;2.70;;;;;19.20;96368.00;;;;5046591;28;20248;-68
2023/07/28 06:11:15;;;;;;;5.57;2.87;;;;;19.50;96368.00;;;;5037990;28;20227;-69
2023/07/28 06:14:04;;;;;;;5.00;2.47;;;;;19.80;96367.00;;;;5041605;28;20196;-68
2023/07/28 06:16:54;;;;;;;4.23;2.80;;;;;20.10;96371.00;;;;5046335;28;20224;-67
2023/07/28 06:19:43;;;;;;;8.50;3.40;;;;;20.60;96358.00;;;;5053126;28;20225;-68
2023/07/28 06:22:32;;;;;;;3.50;2.77;;;;;21.00;96373.00;;;;5042871;28;20205;-69
2023/07/28 06:25:21;;;;;;;6.23;2.63;;;;;21.20;96361.00;;;;5048481;28;20333;-69
2023/07/28 06:28:11;;;;;;;5.43;2.90;;;;;21.50;96366.00;;;;5044932;28;20200;-70
2023/07/28 06:31:00;;;;;;;4.27;2.90;;;;;21.70;96358.00;;;;5048005;28;20217;-70
2023/07/28 06:33:51;;;;;;;4.37;2.53;;;;;22.00;96362.00;;;;5043984;28;20197;-69
2023/07/28 06:36:40;;;;;;;2.87;2.27;;;;;22.00;96370.00;;;;5041750;28;20228;-69
2023/07/28 06:39:30;;;;;;;4.67;2.70;;;;;21.90;96372.00;;;;5042837;28;20624;-69
2023/07/28 06:42:23;;;;;;;5.07;2.67;;;;;21.80;96367.00;;;;5044052;28;20225;-69
2023/07/28 06:45:13;;;;;;;7.17;2.57;;;;;21.90;96376.00;;;;5043563;28;20207;-69
2023/07/28 06:48:03;;;;;;;5.50;2.23;;;;;22.50;96374.00;;;;5047767;28;20239;-70
2023/07/28 06:50:54;;;;;;;5.37;2.73;;;;;22.80;96383.00;;;;5050220;28;20229;-70
2023/07/28 06:53:43;;;;;;;6.20;2.90;;;;;22.60;96372.00;;;;5056047;28;20219;-69
2023/07/28 06:56:32;;;;;;;3.03;2.50;;;;;22.30;96375.00;;;;5053589;28;20228;-70
2023/07/28 06:59:21;;;;;;;6.23;2.40;;;;;22.50;96366.00;;;;5048344;28;20703;-68
2023/07/28 07:02:10;;;;;;;3.80;2.17;;;;;22.90;96368.00;;;;5044746;28;20232;-68
2023/07/28 07:04:59;;;;;;;5.73;2.60;;;;;23.00;96372.00;;;;5043073;28;20214;-69
2023/07/28 07:07:50;;;;;;;2.80;2.10;;;;;23.10;96379.00;;;;5049377;28;20205;-69
2023/07/28 07:10:39;;;;;;;4.03;2.27;;;;;23.10;96376.00;;;;5044561;28;20239;-69
2023/07/28 07:13:28;;;;;;;3.60;2.67;;;;;23.40;96376.00;;;;5048993;28;20204;-70
2023/07/28 07:16:17;;;;;;;2.87;2.17;;;;;23.70;96374.00;;;;5045170;28;20220;-69
2023/07/28 07:19:11;;;;;;;3.40;2.40;;;;;24.00;96366.00;;;;5046267;28;20196;-69
2023/07/28 07:22:01;;;;;;;4.87;2.43;;;;;24.10;96355.00;;;;5052469;28;20691;-69
2023/07/28 07:24:52;;;;;;;8.90;2.57;;;;;24.50;96361.00;;;;5045163;28;20216;-70
2023/07/28 07:27:41;;;;;;;4.47;2.53;;;;;24.70;96351.00;;;;5046478;28;20200;-70
2023/07/28 07:30:32;;;;;;;7.77;2.43;;;;;24.80;96366.00;;;;5049051;28;20220;-70
2023/07/28 07:33:21;;;;;;;3.13;2.27;;;;;25.00;96363.00;;;;5053928;28;20192;-69
2023/07/28 07:36:13;;;;;;;4.23;2.23;;;;;25.10;96375.00;;;;5051198;28;20211;-69
2023/07/28 07:39:04;;;;;;;3.83;2.00;;;;;25.30;96365.00;;;;5047930;28;20224;-70
2023/07/28 07:41:55;;;;;;;4.43;2.13;;;;;25.40;96375.00;;;;5047072;28;20252;-67
2023/07/28 07:44:44;;;;;;;3.47;2.70;;;;;25.50;96370.00;;;;5046304;28;20209;-69
2023/07/28 07:47:33;;;;;;;3.47;2.30;;;;;25.70;96382.00;;;;5047612;28;20240;-70
2023/07/28 07:50:22;;;;;;;3.37;2.33;;;;;25.70;96365.00;;;;5044155;28;20197;-69
2023/07/28 07:53:12;;;;;;;5.83;2.83;;;;;25.90;96369.00;;;;5047583;28;20590;-68
2023/07/28 07:56:01;;;;;;;3.97;2.77;;;;;26.00;96382.00;;;;5045620;28;20202;-70
2023/07/28 07:58:51;;;;;;;9.77;2.50;;;;;25.80;96380.00;;;;5047882;28;20200;-69
2023/07/28 08:01:40;;;;;;;3.47;2.43;;;;;26.10;96378.00;;;;5042394;28;20757;-69
2023/07/28 08:04:29;;;;;;;5.30;3.23;;;;;26.30;96382.00;;;;5048020;28;20204;-69
2023/07/28 08:07:19;;;;;;;5.00;2.40;;;;;26.50;96384.00;;;;5056229;28;20232;-69
2023/07/28 08:10:09;;;;;;;3.63;2.70;;;;;26.90;96386.00;;;;5058249;28;20866;-69
2023/07/28 08:12:58;;;;;;;3.73;2.80;;;;;27.00;96386.00;;;;5042013;28;20201;-69
2023/07/28 08:15:48;;;;;;;3.23;2.10;;;;;27.10;96389.00;;;;5038970;28;20593;-69
2023/07/28 08:18:37;;;;;;;4.40;2.37;;;;;27.10;96385.00;;;;5046482;28;20208;-70
2023/07/28 08:21:26;;;;;;;8.20;2.47;;;;;27.50;96380.00;;;;5047920;28;20235;-69
2023/07/28 08:24:15;;;;;;;2.07;1.77;;;;;27.70;96397.00;;;;5045594;28;20202;-69
2023/07/28 08:27:05;;;;;;;2.83;2.40;;;;;27.40;96402.00;;;;5041281;28;20684;-69
2023/07/28 08:29:54;;;;;;;4.17;2.33;;;;;27.20;96392.00;;;;5045721;28;20573;-69
2023/07/28 08:32:44;;;;;;;4.00;2.57;;;;;27.20;96392.00;;;;5040414;28;20213;-69
2023/07/28 08:35:33;;;;;;;2.27;2.07;;;;;27.70;96402.00;;;;5044623;28;20205;-70
2023/07/28 08:38:23;;;;;;;3.70;2.00;;;;;27.80;96390.00;;;;5057031;28;20685;-69
2023/07/28 08:41:12;;;;;;;7.63;3.50;;;;;28.10;96389.00;;;;5043611;28;20602;-70
2023/07/28 08:44:01;;;;;;;2.53;2.07;;;;;27.40;96394.00;;;;5046509;28;20665;-70
2023/07/28 08:46:50;;;;;;;3.97;2.00;;;;;28.00;96393.00;;;;5047672;28;20201;-70
2023/07/28 08:49:41;;;;;;;3.00;2.00;;;;;27.40;96391.00;;;;5045158;28;20271;-68
2023/07/28 08:52:30;;;;;;;3.73;1.80;;;;;28.40;96391.00;;;;5043469;28;20198;-70
2023/07/28 08:55:20;;;;;;;2.27;2.07;;;;;28.50;96386.00;;;;5045845;28;20848;-70
2023/07/28 08:58:16;;;;;;;3.70;1.93;;;;;28.60;96383.00;;;;5042557;28;20198;-70
2023/07/28 09:01:05;;;;;;;3.10;2.40;;;;;28.10;96380.00;;;;5048911;28;20240;-70
2023/07/28 09:03:55;;;;;;;3.40;1.70;;;;;29.00;96383.00;;;;5045355;28;20221;-70
2023/07/28 09:06:47;;;;;;;2.47;1.87;;;;;29.30;96389.00;;;;5047638;28;20215;-71
2023/07/28 09:09:37;;;;;;;6.77;2.50;;;;;29.70;96383.00;;;;5038683;28;20204;-70
2023/07/28 09:12:26;;;;;;;3.07;2.53;;;;;29.30;96405.00;;;;5057254;28;20635;-70
2023/07/28 09:15:16;;;;;;;3.47;2.40;;;;;28.90;96389.00;;;;5041726;28;20204;-70
2023/07/28 09:18:08;;;;;;;2.60;2.10;;;;;29.70;96395.00;;;;5041937;28;20200;-70
2023/07/28 09:20:57;;;;;;;4.13;2.80;;;;;29.80;96389.00;;;;5046549;28;20256;-71
2023/07/28 09:23:48;;;;;;;3.30;1.93;;;;;29.70;96399.00;;;;5047103;28;20819;-71
2023/07/28 09:26:41;;;;;;;2.20;2.00;;;;;29.30;96398.00;;;;5035160;28;20197;-69
2023/07/28 09:29:30;;;;;;;2.37;1.83;;;;;29.40;96384.00;;;;5035809;28;20206;-70
2023/07/28 09:32:30;;;;;;;2.73;2.50;;;;;29.60;96381.00;;;;5037636;28;20251;-70
2023/07/28 09:35:21;;;;;;;2.77;1.67;;;;;30.10;96379.00;;;;5038888;28;20581;-69
2023/07/28 09:38:10;;;;;;;3.13;2.40;;;;;30.80;96374.00;;;;5042234;28;20689;-71
2023/07/28 09:41:01;;;;;;;4.47;2.20;;;;;31.00;96373.00;;;;5042314;28;20226;-70
2023/07/28 09:43:50;;;;;;;2.83;2.23;;;;;31.20;96368.00;;;;5044400;28;20592;-70
2023/07/28 09:46:48;;;;;;;4.40;2.33;;;;;31.10;96362.00;;;;5043748;28;20222;-70
2023/07/28 09:49:38;;;;;;;2.73;2.10;;;;;31.40;96362.00;;;;5029375;28;20231;-70
2023/07/28 09:52:29;;;;;;;2.90;2.00;;;;;31.30;96372.00;;;;5044047;28;20234;-70
2023/07/28 09:55:19;;;;;;;3.00;2.33;;;;;30.20;96376.00;;;;5044209;28;20199;-69
2023/07/28 09:58:12;;;;;;;2.17;1.97;;;;;29.80;96371.00;;;;5041527;28;20201;-70
2023/07/28 10:01:01;;;;;;;4.07;2.43;;;;;30.90;96361.00;;;;5052937;28;20594;-69
2023/07/28 10:03:51;;;;;;;2.37;2.10;;;;;31.30;96359.00;;;;5050954;28;20208;-69
2023/07/28 10:06:40;;;;;;;6.87;2.27;;;;;31.40;96357.00;;;;5042117;28;20231;-70
2023/07/28 10:09:30;;;;;;;2.47;2.27;;;;;31.50;96350.00;;;;5046190;28;22485;-69
2023/07/28 10:12:22;;;;;;;3.30;2.00;;;;;31.40;96347.00;;;;5050307;28;20234;-69
2023/07/28 10:15:16;;;;;;;2.30;2.10;;;;;31.80;96339.00;;;;5041692;28;20662;-70
2023/07/28 10:18:06;;;;;;;2.07;1.87;;;;;31.40;96342.00;;;;5041956;28;20193;-71
2023/07/28 10:20:55;;;;;;;2.67;2.20;;;;;32.10;96329.00;;;;5047136;28;20222;-70
2023/07/28 10:23:47;;;;;;;3.50;2.20;;;;;33.10;96324.00;;;;5054927;28;20204;-70
2023/07/28 10:26:41;;;;;;;2.80;2.07;;;;;33.60;96338.00;;;;5039424;28;20213;-69
2023/07/28 10:29:38;;;;;;;3.57;2.20;;;;;33.20;96320.00;;;;5048802;28;20226;-68
2023/07/28 10:32:29;;;;;;;4.20;2.47;;;;;33.10;96357.00;;;;5043887;28;20223;-71
2023/07/28 10:35:26;;;;;;;2.77;2.00;;;;;32.50;96356.00;;;;5041459;28;20200;-69
2023/07/28 10:38:33;;;;;;;2.65;2.45;;;;;33.30;96315.00;;;;5043430;28;20210;-70
2023/07/28 10:41:22;;;;;;;3.38;2.53;;;;;33.50;96358.00;;;;5044878;28;20231;-71
2023/07/28 10:44:11;;;;;;;3.63;2.13;;;;;33.00;96351.00;;;;5043245;28;20200;-70
2023/07/28 10:47:01;;;;;;;2.42;1.88;;;;;33.40;96352.00;;;;5042668;28;20204;-70
2023/07/28 10:49:51;;;;;;;2.35;1.95;;;;;33.20;96354.00;;;;5047163;28;20228;-70
2023/07/28 10:52:41;;;;;;;2.22;1.90;;;;;33.20;96345.00;;;;5046372;28;20204;-70
2023/07/28 10:55:30;;;;;;;3.55;1.90;;;;;32.70;96313.00;;;;5041281;28;20279;-70
2023/07/28 10:58:21;;;;;;;2.45;1.85;;;;;33.30;96354.00;;;;5046433;28;20202;-70
2023/07/28 11:01:10;;;;;;;2.55;2.00;;;;;35.40;96355.00;;;;5049544;22;20233;-86
2023/07/28 11:04:06;;;;;;;1.92;1.55;;;;;34.70;96359.00;;;;5031348;28;20724;-86
2023/07/28 11:06:56;;;;;;;1.88;1.70;;;;;34.00;96364.00;;;;5033391;28;20247;-87
2023/07/28 11:09:45;;;;;;;5.95;2.10;;;;;33.80;96359.00;;;;5031407;28;20228;-86
2023/07/28 11:12:35;;;;;;;2.97;1.77;;;;;33.80;96323.00;;;;5022483;28;20694;-86
2023/07/28 11:15:24;;;;;;;2.30;2.10;;;;;34.60;96360.00;;;;5031005;28;20201;-87
2023/07/28 11:18:16;;;;;;;2.13;1.92;;;;;32.70;96354.00;;;;5022837;28;20205;-87
2023/07/28 11:21:05;;;;;;;1.73;1.55;;;;;33.70;96367.00;;;;5030833;28;20744;-87
2023/07/28 11:23:56;;;;;;;3.17;1.90;;;;;33.70;96358.00;;;;5022804;28;20207;-85
2023/07/28 11:26:46;;;;;;;1.40;1.30;;;;;33.60;96356.00;;;;5027289;28;20212;-86
2023/07/28 11:29:35;;;;;;;1.52;1.40;;;;;33.70;96360.00;;;;5023262;28;20255;-86
2023/07/28 11:32:25;;;;;;;2.20;2.00;;;;;33.20;96293.00;;;;5024196;28;20197;-86
2023/07/28 11:35:16;;;;;;;4.20;2.00;;;;;34.00;96301.00;;;;5028822;28;20236;-86
2023/07/28 11:38:05;;;;;;;2.55;2.33;;;;;35.20;96293.00;;;;5029753;28;20203;-86
2023/07/28 11:40:56;;;;;;;2.50;2.30;;;;;35.10;96294.00;;;;5030596;28;20419;-87
2023/07/28 11:43:48;;;;;;;2.10;1.70;;;;;36.00;96295.00;;;;5028305;28;20211;-87
2023/07/28 11:46:38;;;;;;;2.30;2.10;;;;;36.00;96291.00;;;;5030437;28;20215;-87
2023/07/28 11:49:27;;;;;;;2.42;1.90;;;;;35.80;96289.00;;;;5024821;28;20217;-87
2023/07/28 11:52:17;;;;;;;2.40;2.00;;;;;36.50;96280.00;;;;5020873;28;20205;-87
2023/07/28 11:55:07;;;;;;;3.42;2.10;;;;;35.50;96315.00;;;;5031489;28;20205;-88
2023/07/28 11:57:57;;;;;;;2.72;2.05;;;;;35.80;96283.00;;;;5030143;28;20619;-87
2023/07/28 12:00:46;;;;;;;2.00;1.80;;;;;36.20;96285.00;;;;5029353;28;20217;-87
2023/07/28 12:03:36;;;;;;;2.33;2.13;;;;;36.70;96288.00;;;;5019306;28;20216;-87
2023/07/28 12:06:25;;;;;;;4.03;1.90;;;;;36.40;96287.00;;;;5027017;28;20208;-87
2023/07/28 12:09:16;;;;;;;2.03;1.63;;;;;36.60;96298.00;;;;5027463;28;20225;-88
2023/07/28 12:12:05;;;;;;;2.05;1.85;;;;;35.90;96270.00;;;;5030794;28;20205;-88
2023/07/28 12:14:57;;;;;;;4.05;1.75;;;;;35.90;96335.00;;;;5030506;28;20220;-88
2023/07/28 12:18:10;;;;;;;2.50;1.75;;;;;35.60;96308.00;;;;5030160;28;20216;-87
2023/07/28 12:21:02;;;;;;;2.42;1.77;;;;;35.80;96328.00;;;;5030222;28;20810;-88
2023/07/28 12:23:51;;;;;;;2.22;1.77;;;;;34.80;96322.00;;;;5018036;28;20211;-87
2023/07/28 12:26:43;;;;;;;2.22;1.92;;;;;35.30;96302.00;;;;5029612;28;20213;-87
2023/07/28 12:29:32;;;;;;;2.50;1.70;;;;;34.80;96259.00;;;;5021539;28;20220;-87
2023/07/28 12:32:24;;;;;;;2.20;1.77;;;;;35.50;96263.00;;;;5026800;28;20210;-87
2023/07/28 12:35:24;;;;;;;1.42;1.33;;;;;36.20;96313.00;;;;5029397;28;20201;-88
2023/07/28 12:38:33;;;;;;;2.77;2.37;;;;;36.00;96309.00;;;;5020445;28;20208;-88
2023/07/28 12:41:25;;;;;;;2.00;1.50;;;;;36.00;96280.00;;;;5025037;28;20240;-87
2023/07/28 12:44:28;;;;;;;2.03;1.83;;;;;35.60;96312.00;;;;5026089;28;20200;-87
2023/07/28 12:47:20;;;;;;;2.72;2.05;;;;;35.10;96244.00;;;;5029779;28;20216;-88
2023/07/28 12:50:11;;;;;;;2.53;1.90;;;;;35.40;96324.00;;;;5024375;28;20224;-87
2023/07/28 12:53:03;;;;;;;5.22;2.53;;;;;34.30;96318.00;;;;5030528;28;20694;-87
2023/07/28 12:56:00;;;;;;;2.40;2.10;;;;;34.60;96241.00;;;;5030101;28;20197;-86
2023/07/28 12:58:49;;;;;;;3.85;2.20;;;;;36.90;96252.00;;;;5027212;28;20197;-87
2023/07/28 13:01:41;;;;;;;3.65;2.08;;;;;36.30;96294.00;;;;5028662;28;20243;-87
2023/07/28 13:04:30;;;;;;;2.28;2.08;;;;;36.20;96249.00;;;;5030105;28;20204;-86
2023/07/28 13:07:21;;;;;;;2.90;2.53;;;;;37.50;96307.00;;;;5026480;28;20203;-87
2023/07/28 13:10:13;;;;;;;3.60;1.73;;;;;36.50;96309.00;;;;5024469;28;20221;-87
2023/07/28 13:13:05;;;;;;;2.47;1.95;;;;;35.90;96270.00;;;;5027472;28;20205;-85
2023/07/28 13:16:00;;;;;;;2.60;2.25;;;;;36.00;96284.00;;;;5029850;28;20675;-86
2023/07/28 13:18:49;;;;;;;1.58;1.38;;;;;36.60;96277.00;;;;5029597;28;20208;-87
2023/07/28 13:21:38;;;;;;;1.60;1.50;;;33.10;61.80;35.70;96248.00;;;;5027917;28;20690;-86
2023/07/28 13:24:28;;;;;;;3.45;2.00;;;33.00;62.10;32.60;96243.00;;;;5027339;28;20200;-88
2023/07/28 13:27:18;;;;;;;2.42;2.13;;;32.20;63.80;33.10;96237.00;;;;5027053;28;20209;-85
2023/07/28 13:30:09;;;;;;;2.70;2.28;;;31.60;65.60;33.70;96309.00;;;;5028749;28;20287;-87
2023/07/28 13:32:57;;;;;;;2.70;2.05;;;31.40;65.80;32.80;96236.00;;;;5022680;28;20211;-86
2023/07/28 13:35:46;;;;;;;2.38;1.63;;;31.00;66.60;34.80;96252.00;;;;5027732;28;20204;-86
2023/07/28 13:38:35;;;;;;;2.53;2.33;;;31.20;71.20;36.70;96248.00;;;;5021000;28;20682;-86
2023/07/28 13:41:26;;;;;;;3.13;2.05;;;31.90;68.30;35.70;96249.00;;;;5028618;28;20217;-87
2023/07/28 13:44:14;;;;;;;1.90;1.80;;;32.40;67.10;35.60;96256.00;;;;5027701;28;20197;-86
2023/07/28 13:47:05;;;;;;;2.58;1.70;;;32.70;62.80;36.40;96246.00;;;;5027993;28;20201;-85
2023/07/28 13:49:54;;;;;;;3.00;2.22;;;32.80;64.60;36.00;96257.00;;;;5027892;28;20232;-86
2023/07/28 13:52:43;;;;;;;2.67;1.83;;;32.80;64.80;36.50;96257.00;;;;5028460;28;20216;-87
2023/07/28 13:55:37;;;;;;;2.30;2.10;;;33.20;67.60;37.20;96258.00;;;;5026885;28;20258;-86
2023/07/28 13:58:30;;;;;;;3.10;2.25;;;33.60;61.80;36.00;96256.00;;;;5028876;28;20201;-86
2023/07/28 14:01:19;;;;;;;2.13;1.92;;;33.60;59.80;35.40;96265.00;;;;5023871;28;20228;-87
2023/07/28 14:04:08;;;;;;;1.90;1.70;;;33.10;61.40;38.00;96248.00;;;;5022853;28;20212;-87